Time;durP1;ratioP1;P1;durP2;ratioP2;P2;SDS_P1;SDS_P2;PMS_P1;PMS_P2;Temp;Humidity;BMP_temperature;BMP_pressure;BME280_temperature;BME280_humidity;BME280_pressure;Samples;Min_cycle;Max_cycle;Signal;HPM_P1;HPM_P2
2023/04/08 00:01:06;;;;;;;10.25;8.27;;;5.80;99.90;;;;;;5076277;28;20079;-82
2023/04/08 00:03:32;;;;;;;11.63;8.38;;;5.80;99.90;;;;;;5062608;28;20071;-83
2023/04/08 00:05:59;;;;;;;14.80;8.45;;;5.70;99.90;;;;;;5087752;28;20051;-82
2023/04/08 00:08:25;;;;;;;11.55;7.97;;;5.70;99.90;;;;;;5079068;28;20503;-82
2023/04/08 00:10:50;;;;;;;10.73;8.02;;;5.70;99.90;;;;;;5087886;28;20047;-82
2023/04/08 00:13:16;;;;;;;10.90;7.68;;;5.70;99.90;;;;;;5092597;28;20051;-82
2023/04/08 00:15:42;;;;;;;10.48;7.97;;;5.60;99.90;;;;;;5058610;28;20050;-82
2023/04/08 00:18:08;;;;;;;10.23;8.20;;;5.60;99.90;;;;;;5078079;28;20028;-81
2023/04/08 00:20:33;;;;;;;11.32;7.68;;;6.60;99.90;;;;;;5071808;28;20491;-82
2023/04/08 00:22:59;;;;;;;12.43;7.90;;;6.40;99.90;;;;;;5076824;28;20040;-83
2023/04/08 00:25:25;;;;;;;13.70;8.15;;;5.60;99.90;;;;;;5076853;28;20491;-83
2023/04/08 00:27:51;;;;;;;11.07;8.07;;;5.40;99.90;;;;;;5050683;28;20088;-82
2023/04/08 00:30:16;;;;;;;9.82;7.75;;;5.40;99.90;;;;;;5084196;28;20495;-83
2023/04/08 00:32:42;;;;;;;12.05;8.30;;;5.40;99.90;;;;;;5094854;28;20047;-82
2023/04/08 00:35:08;;;;;;;11.02;7.55;;;5.60;99.90;;;;;;5077640;28;20139;-82
2023/04/08 00:37:34;;;;;;;12.88;8.23;;;5.30;99.90;;;;;;5075970;28;20059;-83
2023/04/08 00:39:59;;;;;;;11.35;7.38;;;6.20;99.90;;;;;;5101634;28;20055;-83
2023/04/08 00:42:25;;;;;;;12.25;7.70;;;5.20;99.90;;;;;;5113798;28;20062;-82
2023/04/08 00:44:51;;;;;;;13.88;7.90;;;5.80;99.90;;;;;;5073977;28;20119;-83
2023/04/08 00:47:17;;;;;;;11.63;8.23;;;5.20;99.90;;;;;;5089979;28;20119;-83
2023/04/08 00:49:43;;;;;;;10.57;7.53;;;5.20;99.90;;;;;;5095734;28;20078;-84
2023/04/08 00:52:09;;;;;;;11.38;8.00;;;5.10;99.90;;;;;;5083675;28;20075;-82
2023/04/08 00:54:36;;;;;;;11.75;8.18;;;5.60;99.90;;;;;;5076750;28;20535;-82
2023/04/08 00:57:04;;;;;;;9.75;7.50;;;5.60;99.90;;;;;;5077041;28;20070;-83
2023/04/08 00:59:30;;;;;;;12.35;8.23;;;5.10;99.90;;;;;;5076704;28;20387;-83
2023/04/08 01:02:13;;;;;;;12.52;7.85;;;5.30;99.90;;;;;;5060154;28;20633;-82
2023/04/08 01:05:03;;;;;;;12.00;8.43;;;5.60;99.90;;;;;;5091681;28;20047;-83
2023/04/08 01:07:33;;;;;;;10.73;8.07;;;5.00;99.90;;;;;;5093910;28;20039;-83
2023/04/08 01:10:22;;;;;;;14.93;8.98;;;4.90;99.90;;;;;;5094110;28;20061;-82
2023/04/08 01:13:00;;;;;;;10.27;8.40;;;4.90;99.90;;;;;;5094209;28;20054;-84
2023/04/08 01:15:30;;;;;;;11.73;7.93;;;4.80;99.90;;;;;;5091944;28;20438;-83
2023/04/08 01:17:58;;;;;;;14.68;8.80;;;5.20;99.90;;;;;;5092907;28;20496;-83
2023/04/08 01:20:25;;;;;;;12.80;8.88;;;4.90;99.90;;;;;;5083255;28;20044;-83
2023/04/08 01:23:00;;;;;;;14.18;8.75;;;4.80;99.90;;;;;;5094048;28;20456;-83
2023/04/08 01:25:35;;;;;;;12.52;7.95;;;4.90;99.90;;;;;;5078599;28;20410;-82
2023/04/08 01:28:04;;;;;;;13.48;8.38;;;4.70;99.90;;;;;;5091450;28;20040;-83
2023/04/08 01:30:32;;;;;;;9.90;7.80;;;5.30;99.90;;;;;;5075760;28;20487;-82
2023/04/08 01:33:00;;;;;;;11.63;8.18;;;4.60;99.90;;;;;;5094654;28;20047;-83
2023/04/08 01:35:26;;;;;;;11.93;8.35;;;4.60;99.90;;;;;;5090681;28;20456;-83
2023/04/08 01:37:54;;;;;;;11.77;8.75;;;5.00;99.90;;;;;;5092703;28;20040;-83
2023/04/08 01:40:19;;;;;;;15.07;8.25;;;4.50;99.90;;;;;;5093388;28;20113;-82
2023/04/08 01:42:48;;;;;;;15.20;8.40;;;4.50;99.90;;;;;;5077734;28;20052;-83
2023/04/08 01:45:15;;;;;;;12.05;8.73;;;4.50;99.90;;;;;;5111331;28;20071;-83
2023/04/08 01:47:43;;;;;;;13.10;8.80;;;5.00;99.90;;;;;;5087191;28;20047;-83
2023/04/08 01:50:11;;;;;;;13.25;8.23;;;5.50;99.90;;;;;;5092462;28;20547;-83
2023/04/08 01:52:39;;;;;;;11.18;8.45;;;4.40;99.90;;;;;;5057977;28;20039;-82
2023/04/08 01:55:05;;;;;;;12.10;8.38;;;5.10;99.90;;;;;;5110229;28;20070;-82
2023/04/08 01:57:34;;;;;;;11.45;8.40;;;4.30;99.90;;;;;;5072411;28;20043;-83
2023/04/08 02:00:04;;;;;;;13.82;8.30;;;4.30;99.90;;;;;;5098174;28;20031;-83
2023/04/08 02:02:31;;;;;;;12.48;8.43;;;4.30;99.90;;;;;;5086274;28;20066;-83
2023/04/08 02:04:57;;;;;;;13.80;8.30;;;4.50;99.90;;;;;;5096702;28;20511;-83
2023/04/08 02:07:23;;;;;;;10.85;8.23;;;4.20;99.90;;;;;;5095907;28;20048;-82
2023/04/08 02:09:49;;;;;;;11.15;7.97;;;4.20;99.90;;;;;;5083700;28;20122;-83
2023/04/08 02:12:16;;;;;;;13.30;9.00;;;4.20;99.90;;;;;;5076573;28;20464;-83
2023/04/08 02:14:41;;;;;;;11.93;8.30;;;5.40;99.90;;;;;;5077707;28;20377;-83
2023/04/08 02:17:12;;;;;;;11.85;8.05;;;4.50;99.90;;;;;;5085109;28;20089;-83
2023/04/08 02:20:14;;;;;;;15.93;9.43;;;4.10;99.90;;;;;;5077323;28;20042;-82
2023/04/08 02:23:13;;;;;;;12.93;8.77;;;4.00;99.90;;;;;;5066153;28;20071;-83
2023/04/08 02:25:44;;;;;;;13.70;8.73;;;3.90;99.90;;;;;;5066296;28;20044;-83
2023/04/08 02:28:11;;;;;;;14.07;8.75;;;3.90;99.90;;;;;;5079111;28;20130;-83
2023/04/08 02:30:41;;;;;;;13.00;8.60;;;4.00;99.90;;;;;;5084677;28;20040;-83
2023/04/08 02:33:08;;;;;;;13.73;8.75;;;3.90;99.90;;;;;;5093836;28;20096;-83
2023/04/08 02:35:35;;;;;;;12.57;8.52;;;3.90;99.90;;;;;;5079701;28;20039;-82
2023/04/08 02:38:01;;;;;;;14.65;8.85;;;3.80;99.90;;;;;;5097976;28;20036;-82
2023/04/08 02:40:31;;;;;;;12.98;9.00;;;4.40;99.90;;;;;;5064340;28;20074;-83
2023/04/08 02:42:58;;;;;;;14.88;8.85;;;4.80;99.90;;;;;;5078183;28;20046;-83
2023/04/08 02:45:30;;;;;;;13.50;9.23;;;4.80;99.90;;;;;;5087041;28;20054;-83
2023/04/08 02:47:57;;;;;;;13.25;9.10;;;3.70;99.90;;;;;;5090523;28;20071;-83
2023/04/08 02:50:22;;;;;;;14.05;8.20;;;3.70;99.90;;;;;;5090475;28;20496;-82
2023/04/08 02:52:48;;;;;;;16.15;8.85;;;3.80;99.90;;;;;;5078505;28;20043;-82
2023/04/08 02:55:14;;;;;;;12.85;9.27;;;3.70;99.90;;;;;;5082364;28;20089;-82
2023/04/08 02:57:41;;;;;;;13.27;9.25;;;3.60;99.90;;;;;;5060085;28;20075;-82
2023/04/08 03:00:07;;;;;;;14.15;9.85;;;4.10;99.90;;;;;;5072149;28;20114;-83
2023/04/08 03:02:33;;;;;;;17.95;9.82;;;3.60;99.90;;;;;;5090496;28;20047;-83
2023/04/08 03:04:59;;;;;;;17.00;9.80;;;5.10;99.90;;;;;;5097212;28;20121;-82
2023/04/08 03:07:25;;;;;;;15.00;10.20;;;3.90;99.90;;;;;;5088445;28;20051;-82
2023/04/08 03:09:51;;;;;;;16.73;9.85;;;4.20;99.90;;;;;;5101719;28;20068;-83
2023/04/08 03:12:17;;;;;;;14.38;9.85;;;3.50;99.90;;;;;;5073085;28;20492;-82
2023/04/08 03:14:43;;;;;;;15.02;9.60;;;3.40;99.90;;;;;;5078989;28;20044;-82
2023/04/08 03:17:08;;;;;;;14.10;9.07;;;4.60;99.90;;;;;;5076877;28;20028;-83
2023/04/08 03:19:34;;;;;;;14.40;9.95;;;3.40;99.90;;;;;;5063713;28;20572;-82
2023/04/08 03:22:00;;;;;;;15.63;10.30;;;4.10;99.90;;;;;;5094961;28;20036;-83
2023/04/08 03:24:25;;;;;;;15.27;10.18;;;3.70;99.90;;;;;;5096228;28;20054;-83
2023/04/08 03:26:51;;;;;;;15.57;10.63;;;3.30;99.90;;;;;;5093701;28;20105;-83
2023/04/08 03:29:16;;;;;;;17.60;10.82;;;4.40;99.90;;;;;;5052883;28;20044;-83
2023/04/08 03:31:42;;;;;;;16.13;10.25;;;3.30;99.90;;;;;;5075735;28;20511;-82
2023/04/08 03:34:08;;;;;;;17.27;11.23;;;3.20;99.90;;;;;;5079549;28;20086;-83
2023/04/08 03:36:34;;;;;;;18.13;11.13;;;3.20;99.90;;;;;;5075271;28;20055;-83
2023/04/08 03:39:00;;;;;;;17.52;11.48;;;3.20;99.90;;;;;;5055928;28;20056;-84
2023/04/08 03:41:25;;;;;;;16.33;10.82;;;3.50;99.90;;;;;;5073621;28;20544;-83
2023/04/08 03:43:51;;;;;;;17.73;10.93;;;3.60;99.90;;;;;;5035474;28;20124;-82
2023/04/08 03:46:17;;;;;;;17.00;10.65;;;4.70;99.90;;;;;;5059923;28;20048;-82
2023/04/08 03:48:42;;;;;;;16.85;10.45;;;3.10;99.90;;;;;;5059637;28;20066;-82
2023/04/08 03:51:08;;;;;;;16.67;10.73;;;3.70;99.90;;;;;;5022534;28;20123;-82
2023/04/08 03:53:34;;;;;;;17.10;11.30;;;4.70;99.90;;;;;;5061054;28;20054;-83
2023/04/08 03:56:01;;;;;;;19.15;11.65;;;3.90;99.90;;;;;;5059413;28;20131;-83
2023/04/08 03:58:27;;;;;;;16.52;11.10;;;4.30;99.90;;;;;;5059593;28;20044;-83
2023/04/08 04:00:53;;;;;;;17.90;11.38;;;3.10;99.90;;;;;;5074595;28;20089;-83
2023/04/08 04:03:19;;;;;;;16.35;11.18;;;3.00;99.90;;;;;;5059558;28;20089;-82
2023/04/08 04:05:45;;;;;;;19.83;11.88;;;3.00;99.90;;;;;;5067663;28;20035;-82
2023/04/08 04:08:10;;;;;;;18.35;11.82;;;3.20;99.90;;;;;;5071710;28;20051;-83
2023/04/08 04:10:36;;;;;;;19.83;11.50;;;3.00;99.90;;;;;;5067646;28;20044;-83
2023/04/08 04:13:02;;;;;;;18.73;12.02;;;2.90;99.90;;;;;;5028190;28;20074;-83
2023/04/08 04:15:27;;;;;;;17.63;11.77;;;3.70;99.90;;;;;;5058992;28;20032;-83
2023/04/08 04:17:53;;;;;;;17.98;11.25;;;4.10;99.90;;;;;;5068499;28;20495;-82
2023/04/08 04:20:20;;;;;;;17.00;11.80;;;2.80;99.90;;;;;;5058798;28;20501;-83
2023/04/08 04:22:46;;;;;;;17.42;12.05;;;2.80;99.90;;;;;;5047769;28;20032;-83
2023/04/08 04:25:12;;;;;;;19.95;12.10;;;3.10;99.90;;;;;;5063660;28;20051;-83
2023/04/08 04:27:38;;;;;;;17.75;11.43;;;3.10;99.90;;;;;;5052687;28;20055;-83
2023/04/08 04:30:04;;;;;;;19.05;11.88;;;2.70;99.90;;;;;;5071660;28;20043;-83
2023/04/08 04:32:30;;;;;;;18.98;12.23;;;2.70;99.90;;;;;;5064683;28;20054;-82
2023/04/08 04:34:56;;;;;;;19.90;12.82;;;2.60;99.90;;;;;;5058859;28;20408;-83
2023/04/08 04:37:22;;;;;;;21.25;13.07;;;3.50;99.90;;;;;;5051081;28;20086;-83
2023/04/08 04:39:47;;;;;;;21.63;13.02;;;2.60;99.90;;;;;;5074626;28;20048;-81
2023/04/08 04:42:13;;;;;;;19.40;12.88;;;3.30;99.90;;;;;;5074464;28;20135;-82
2023/04/08 04:44:39;;;;;;;18.65;13.10;;;3.70;99.90;;;;;;5065929;28;20036;-83
2023/04/08 04:47:05;;;;;;;18.92;12.25;;;2.50;99.90;;;;;;5073485;28;20101;-83
2023/04/08 04:49:30;;;;;;;20.73;13.73;;;2.50;99.90;;;;;;5068079;28;20403;-83
2023/04/08 04:51:56;;;;;;;23.20;13.10;;;3.10;99.90;;;;;;5058045;28;20040;-83
2023/04/08 04:54:22;;;;;;;21.23;13.30;;;2.70;99.90;;;;;;5077597;28;20089;-83
2023/04/08 04:56:47;;;;;;;20.45;12.93;;;2.50;99.90;;;;;;5066272;28;20042;-83
2023/04/08 04:59:13;;;;;;;20.80;13.38;;;2.50;99.90;;;;;;5087735;28;20049;-83
2023/04/08 05:01:39;;;;;;;20.55;13.25;;;2.80;99.90;;;;;;5052976;28;20500;-83
2023/04/08 05:04:06;;;;;;;24.80;14.18;;;2.80;99.90;;;;;;5072968;28;20044;-83
2023/04/08 05:06:32;;;;;;;22.48;14.05;;;2.40;99.90;;;;;;5074992;28;20043;-83
2023/04/08 05:08:58;;;;;;;20.52;13.73;;;2.40;99.90;;;;;;5088646;28;20047;-83
2023/04/08 05:11:23;;;;;;;22.55;14.32;;;2.50;99.90;;;;;;5079786;28;20048;-83
2023/04/08 05:13:49;;;;;;;22.55;13.98;;;2.70;99.90;;;;;;5073385;28;20044;-83
2023/04/08 05:16:15;;;;;;;23.52;14.52;;;2.40;99.90;;;;;;5074579;28;20083;-83
2023/04/08 05:18:41;;;;;;;22.92;13.80;;;2.80;99.90;;;;;;5073861;28;20043;-83
2023/04/08 05:21:07;;;;;;;22.80;14.02;;;2.40;99.90;;;;;;5074352;28;20047;-83
2023/04/08 05:23:34;;;;;;;27.08;15.38;;;3.30;99.90;;;;;;5083154;28;20047;-83
2023/04/08 05:26:00;;;;;;;21.75;14.75;;;2.60;99.90;;;;;;5079174;28;20094;-83
2023/04/08 05:28:26;;;;;;;22.75;14.65;;;2.60;99.90;;;;;;5092399;28;20039;-83
2023/04/08 05:30:52;;;;;;;25.00;15.55;;;2.50;99.90;;;;;;5078632;28;20059;-83
2023/04/08 05:33:18;;;;;;;22.75;15.32;;;3.90;99.90;;;;;;5088587;28;20044;-84
2023/04/08 05:35:44;;;;;;;23.25;15.65;;;2.60;99.90;;;;;;5082278;28;20044;-83
2023/04/08 05:38:10;;;;;;;28.33;15.27;;;2.60;99.90;;;;;;5097979;28;20164;-84
2023/04/08 05:40:36;;;;;;;23.08;15.40;;;2.60;99.90;;;;;;5085136;28;20095;-83
2023/04/08 05:43:01;;;;;;;25.45;15.80;;;3.00;99.90;;;;;;5061602;28;20075;-83
2023/04/08 05:45:28;;;;;;;25.92;16.80;;;2.80;99.90;;;;;;5094422;28;20111;-84
2023/04/08 05:47:54;;;;;;;26.85;16.08;;;3.00;99.90;;;;;;5092637;28;20101;-83
2023/04/08 05:50:20;;;;;;;27.92;16.95;;;2.90;99.90;;;;;;5041436;28;20703;-83
2023/04/08 05:52:45;;;;;;;26.33;16.42;;;2.90;99.90;;;;;;5075302;28;20040;-84
2023/04/08 05:55:13;;;;;;;29.27;16.73;;;3.00;99.90;;;;;;5058423;28;20119;-82
2023/04/08 05:57:40;;;;;;;28.08;18.15;;;3.00;99.90;;;;;;5092383;28;20068;-83
2023/04/08 06:00:07;;;;;;;26.17;17.63;;;3.10;99.90;;;;;;5090806;28;20065;-82
2023/04/08 06:02:34;;;;;;;28.10;17.95;;;3.10;99.90;;;;;;5095640;28;20119;-83
2023/04/08 06:05:00;;;;;;;28.20;17.00;;;3.60;99.90;;;;;;5094385;28;20510;-81
2023/04/08 06:07:26;;;;;;;28.52;18.70;;;3.30;99.90;;;;;;5094170;28;20043;-83
2023/04/08 06:09:52;;;;;;;26.50;17.58;;;3.30;99.90;;;;;;5076065;28;20407;-82
2023/04/08 06:12:17;;;;;;;25.67;16.45;;;3.40;99.90;;;;;;5071481;28;20086;-83
2023/04/08 06:14:43;;;;;;;33.50;18.77;;;4.10;99.90;;;;;;5086898;28;20048;-82
2023/04/08 06:17:09;;;;;;;28.40;17.15;;;3.50;99.90;;;;;;5077203;28;20043;-82
2023/04/08 06:19:34;;;;;;;28.55;18.17;;;3.60;99.90;;;;;;5088594;28;20080;-82
2023/04/08 06:22:00;;;;;;;29.58;18.70;;;3.80;99.90;;;;;;5068553;28;20373;-83
2023/04/08 06:24:28;;;;;;;29.55;18.13;;;3.80;99.90;;;;;;5056226;28;20040;-82
2023/04/08 06:26:54;;;;;;;27.60;18.95;;;3.80;99.90;;;;;;5079873;28;20518;-82
2023/04/08 06:29:23;;;;;;;28.67;18.05;;;3.80;99.90;;;;;;5056141;28;20044;-82
2023/04/08 06:31:49;;;;;;;29.25;18.58;;;4.30;99.90;;;;;;5062852;28;20119;-82
2023/04/08 06:34:15;;;;;;;29.45;18.25;;;4.10;99.90;;;;;;5091321;28;20042;-84
2023/04/08 06:36:41;;;;;;;26.80;18.55;;;3.80;99.90;;;;;;5093110;28;20051;-83
2023/04/08 06:39:07;;;;;;;27.95;18.50;;;3.90;99.90;;;;;;5063008;28;20044;-83
2023/04/08 06:41:33;;;;;;;29.48;19.10;;;5.00;99.90;;;;;;5062611;28;20510;-81
2023/04/08 06:43:58;;;;;;;31.15;19.17;;;3.90;99.90;;;;;;5052987;28;20036;-82
2023/04/08 06:46:24;;;;;;;28.92;19.48;;;5.40;99.90;;;;;;5056129;28;20040;-82
2023/04/08 06:48:50;;;;;;;30.65;19.27;;;4.10;99.90;;;;;;5050666;28;20076;-85
2023/04/08 06:51:15;;;;;;;30.70;19.85;;;5.20;99.90;;;;;;5064563;28;20070;-83
2023/04/08 06:53:41;;;;;;;31.95;19.60;;;4.30;99.90;;;;;;5085690;28;20101;-82
2023/04/08 06:56:07;;;;;;;29.88;19.90;;;4.40;99.90;;;;;;5052031;28;20045;-84
2023/04/08 06:58:33;;;;;;;31.00;19.83;;;4.50;99.90;;;;;;5079805;28;20472;-83
2023/04/08 07:00:59;;;;;;;32.47;19.35;;;4.60;99.90;;;;;;5041945;28;20036;-83
2023/04/08 07:03:25;;;;;;;32.95;21.33;;;4.70;99.90;;;;;;5057156;28;20036;-83
2023/04/08 07:05:52;;;;;;;31.42;20.10;;;5.10;99.90;;;;;;5051765;28;20097;-83
2023/04/08 07:08:17;;;;;;;33.95;21.02;;;5.20;99.90;;;;;;5054136;28;20040;-84
2023/04/08 07:10:43;;;;;;;30.52;20.42;;;4.90;99.90;;;;;;5081466;28;20144;-84
2023/04/08 07:13:09;;;;;;;32.22;20.88;;;5.00;99.90;;;;;;5078232;28;20511;-83
2023/04/08 07:15:35;;;;;;;30.70;20.58;;;5.10;99.90;;;;;;5092142;28;20040;-83
2023/04/08 07:18:03;;;;;;;35.00;19.85;;;5.20;99.90;;;;;;5077182;28;20032;-85
2023/04/08 07:20:29;;;;;;;28.52;19.48;;;5.30;99.90;;;;;;5053371;28;20028;-83
2023/04/08 07:22:55;;;;;;;30.88;21.23;;;5.30;99.90;;;;;;5038543;28;20032;-83
2023/04/08 07:25:21;;;;;;;32.50;20.55;;;5.40;99.90;;;;;;5041604;28;20047;-84
2023/04/08 07:27:46;;;;;;;32.22;21.17;;;5.50;99.90;;;;;;5055507;28;20040;-83
2023/04/08 07:30:12;;;;;;;31.55;21.45;;;5.60;99.90;;;;;;5070183;28;20040;-83
2023/04/08 07:32:38;;;;;;;33.83;21.55;;;5.60;99.90;;;;;;5048642;28;20036;-83
2023/04/08 07:35:04;;;;;;;33.08;21.83;;;5.80;99.90;;;;;;5040710;28;20381;-83
2023/04/08 07:37:30;;;;;;;32.80;22.02;;;5.80;99.90;;;;;;5043475;28;20089;-82
2023/04/08 07:39:56;;;;;;;35.15;22.05;;;5.90;99.90;;;;;;5062004;28;20118;-83
2023/04/08 07:42:22;;;;;;;38.83;22.55;;;6.80;99.90;;;;;;5066082;28;20044;-82
2023/04/08 07:44:47;;;;;;;31.75;21.85;;;7.00;99.90;;;;;;5072476;28;20134;-82
2023/04/08 07:47:13;;;;;;;32.22;22.00;;;6.50;99.90;;;;;;5073413;28;20139;-83
2023/04/08 07:49:39;;;;;;;33.80;21.85;;;6.20;99.90;;;;;;5065282;28;20051;-87
2023/04/08 07:52:05;;;;;;;33.40;21.90;;;6.20;99.90;;;;;;5058388;28;20040;-87
2023/04/08 07:54:34;;;;;;;30.88;19.95;;;6.80;99.90;;;;;;5040481;28;20483;-88
2023/04/08 07:57:01;;;;;;;34.53;22.00;;;6.30;99.90;;;;;;5074231;28;20068;-87
2023/04/08 07:59:31;;;;;;;33.22;22.08;;;6.50;99.90;;;;;;5055292;28;20519;-87
2023/04/08 08:01:57;;;;;;;33.88;22.20;;;6.40;99.90;;;;;;5058303;28;20044;-86
2023/04/08 08:04:24;;;;;;;33.90;23.30;;;6.50;99.90;;;;;;5063525;28;20447;-86
2023/04/08 08:06:50;;;;;;;32.63;22.30;;;7.20;99.90;;;;;;5076825;28;20051;-85
2023/04/08 08:09:16;;;;;;;37.80;22.15;;;6.60;99.90;;;;;;5058632;28;20043;-87
2023/04/08 08:11:42;;;;;;;32.60;22.15;;;6.60;99.90;;;;;;5058636;28;20388;-87
2023/04/08 08:14:12;;;;;;;31.05;21.30;;;6.80;99.90;;;;;;5058842;28;20383;-88
2023/04/08 08:16:38;;;;;;;34.97;22.58;;;6.90;99.90;;;;;;5040688;28;20155;-87
2023/04/08 08:19:06;;;;;;;32.08;21.27;;;7.00;99.90;;;;;;5053926;28;20505;-88
2023/04/08 08:21:32;;;;;;;35.13;23.35;;;7.50;99.90;;;;;;5074340;28;20039;-89
2023/04/08 08:24:10;;;;;;;;;;;;;;;;;;;;;
2023/04/08 08:26:36;;;;;;;34.25;22.25;;;7.30;99.90;;;;;;5055228;28;20047;-89
2023/04/08 08:29:03;;;;;;;31.13;20.23;;;7.30;99.90;;;;;;5075013;28;20051;-89
2023/04/08 08:31:29;;;;;;;31.88;21.83;;;7.00;99.90;;;;;;5061592;28;20093;-90
2023/04/08 08:33:57;;;;;;;30.63;21.50;;;8.00;99.90;;;;;;5055513;28;20514;-91
2023/04/08 08:36:23;;;;;;;27.50;18.33;;;8.20;99.90;;;;;;5048769;28;20135;-91
2023/04/08 09:05:20;;;;;;;27.30;19.00;;;9.20;99.90;;;;;;5110482;28;20046;-91
2023/04/08 09:12:02;;;;;;;28.42;19.02;;;10.00;99.90;;;;;;5117219;28;20080;-91
2023/04/08 09:29:23;;;;;;;23.55;16.70;;;10.60;99.90;;;;;;5105170;28;20165;-90
2023/04/08 09:31:56;;;;;;;20.75;16.05;;;10.70;99.90;;;;;;5063230;28;20084;-90
2023/04/08 09:35:23;;;;;;;;;;;;;;;;;;;;;
2023/04/08 09:38:38;;;;;;;21.38;15.52;;;10.10;99.90;;;;;;5086677;28;20044;-91
2023/04/08 09:41:07;;;;;;;19.33;15.18;;;11.20;99.90;;;;;;5070984;28;20108;-90
2023/04/08 09:43:48;;;;;;;19.75;14.30;;;11.50;99.90;;;;;;5079259;28;20077;-90
2023/04/08 09:46:15;;;;;;;19.45;14.23;;;11.60;99.90;;;;;;5077009;28;20044;-92
2023/04/08 09:49:09;;;;;;;18.33;14.27;;;11.70;99.90;;;;;;5079388;28;20105;-90
2023/04/08 09:52:18;;;;;;;19.23;13.98;;;10.70;99.90;;;;;;5078999;28;20100;-91
2023/04/08 09:55:05;;;;;;;24.63;16.83;;;11.80;99.90;;;;;;5073998;28;20048;-91
2023/04/08 09:58:10;;;;;;;20.88;15.90;;;11.80;99.90;;;;;;5077472;28;20558;-90
2023/04/08 10:00:57;;;;;;;22.85;16.15;;;12.00;99.90;;;;;;5077315;28;20055;-91
2023/04/08 10:04:05;;;;;;;19.23;14.02;;;12.20;99.90;;;;;;5032791;28;20608;-92
2023/04/08 10:06:33;;;;;;;20.20;15.73;;;11.90;99.90;;;;;;5031725;28;20049;-92
2023/04/08 10:16:25;;;;;;;;;;;;;;;;;;;;;
2023/04/08 10:19:06;;;;;;;17.85;14.90;;;11.70;99.90;;;;;;4949628;28;20451;-91
2023/04/08 10:21:38;;;;;;;21.55;16.05;;;12.40;99.90;;;;;;4941844;28;20101;-88
2023/04/08 10:24:23;;;;;;;21.83;16.80;;;11.90;99.90;;;;;;5034889;28;20045;-89
2023/04/08 10:26:53;;;;;;;18.90;16.13;;;12.40;99.90;;;;;;5020099;28;20076;-90
2023/04/08 10:29:26;;;;;;;20.98;15.55;;;11.70;99.90;;;;;;5003484;28;20473;-89
2023/04/08 10:32:02;;;;;;;19.20;15.20;;;12.80;99.90;;;;;;5020251;28;20021;-90
2023/04/08 10:34:27;;;;;;;;;;;12.80;99.90;;;;;;5069560;28;20043;-89
2023/04/08 10:37:08;;;;;;;;;;;;;;;;;;;;;
2023/04/08 10:39:58;;;;;;;16.50;13.30;;;12.30;99.90;;;;;;5095115;28;20043;-90
2023/04/08 10:42:47;;;;;;;;;;;;;;;;;;;;;
2023/04/08 10:45:50;;;;;;;16.30;13.50;;;13.00;99.90;;;;;;5103682;28;20560;-90
2023/04/08 10:48:38;;;;;;;17.60;13.80;;;13.00;99.90;;;;;;5082695;28;20044;-91
2023/04/08 10:51:34;;;;;;;;;;;;;;;;;;;;;
2023/04/08 10:54:39;;;;;;;16.60;13.05;;;13.30;99.90;;;;;;5086921;28;20044;-90
2023/04/08 10:57:35;;;;;;;17.48;14.30;;;13.50;99.90;;;;;;5062752;28;20082;-91
2023/04/08 11:00:04;;;;;;;18.65;13.80;;;13.70;99.90;;;;;;5098283;28;20391;-89
2023/04/08 11:02:33;;;;;;;19.02;13.70;;;13.70;99.90;;;;;;5079102;28;20053;-90
2023/04/08 11:04:59;;;;;;;16.80;13.95;;;13.70;99.90;;;;;;5064874;28;20048;-88
2023/04/08 11:07:26;;;;;;;15.95;14.05;;;13.60;99.90;;;;;;5081115;28;20058;-87
2023/04/08 11:09:51;;;;;;;18.95;13.88;;;13.60;99.90;;;;;;5088158;28;20044;-87
2023/04/08 11:12:17;;;;;;;14.85;12.52;;;13.60;99.90;;;;;;5080230;28;20048;-90
2023/04/08 11:14:44;;;;;;;16.67;12.80;;;13.50;99.90;;;;;;5077563;28;20476;-88
2023/04/08 11:17:11;;;;;;;15.10;12.93;;;13.40;99.90;;;;;;5077515;28;20375;-89
2023/04/08 11:19:38;;;;;;;15.52;12.52;;;13.40;99.90;;;;;;5062505;28;20141;-88
2023/04/08 11:22:04;;;;;;;13.50;11.02;;;13.50;99.90;;;;;;5079530;28;20035;-89
2023/04/08 11:24:30;;;;;;;13.98;11.60;;;13.90;99.90;;;;;;5099173;28;20039;-90
2023/04/08 11:26:56;;;;;;;16.15;12.95;;;14.00;99.90;;;;;;5072302;28;20118;-89
2023/04/08 11:29:22;;;;;;;16.02;12.45;;;14.00;99.90;;;;;;5097599;28;20032;-89
2023/04/08 11:31:50;;;;;;;15.02;12.68;;;14.00;99.90;;;;;;5076365;28;20032;-91
2023/04/08 11:34:22;;;;;;;15.68;12.20;;;14.00;99.90;;;;;;5073219;28;20485;-91
2023/04/08 11:36:49;;;;;;;16.00;13.57;;;14.10;99.90;;;;;;5078234;28;20039;-89
2023/04/08 11:39:15;;;;;;;17.63;13.48;;;14.20;99.90;;;;;;5076509;28;20045;-90
2023/04/08 11:41:47;;;;;;;16.95;14.32;;;14.30;99.90;;;;;;5065160;28;20137;-89
2023/04/08 11:44:13;;;;;;;15.65;13.05;;;14.50;99.90;;;;;;5060468;28;20072;-89
2023/04/08 11:46:39;;;;;;;17.80;13.02;;;14.60;99.90;;;;;;5063975;28;20040;-90
2023/04/08 11:49:07;;;;;;;19.58;14.98;;;14.70;99.90;;;;;;5078263;28;20043;-88
2023/04/08 11:51:34;;;;;;;17.15;13.27;;;14.90;99.90;;;;;;5079762;28;20046;-91
2023/04/08 11:54:06;;;;;;;16.70;13.95;;;14.80;99.90;;;;;;5071634;28;20048;-91
2023/04/08 11:56:45;;;;;;;17.25;12.85;;;14.90;99.90;;;;;;5082905;28;20043;-91
2023/04/08 11:59:11;;;;;;;16.08;13.75;;;14.90;99.90;;;;;;5073714;28;20035;-92
2023/04/08 12:01:37;;;;;;;18.67;14.35;;;14.80;99.90;;;;;;5079863;28;20054;-90
2023/04/08 12:04:03;;;;;;;20.73;15.43;;;14.60;99.90;;;;;;5073213;28;20032;-90
2023/04/08 12:06:30;;;;;;;14.02;12.10;;;14.60;99.90;;;;;;5074226;28;20043;-89
2023/04/08 12:08:56;;;;;;;17.50;15.25;;;14.70;99.90;;;;;;5067515;28;20040;-91
2023/04/08 12:11:22;;;;;;;18.10;15.05;;;14.70;99.90;;;;;;5070860;28;20467;-91
2023/04/08 12:13:51;;;;;;;18.33;15.95;;;14.60;99.90;;;;;;5075062;28;20040;-90
2023/04/08 12:16:18;;;;;;;15.57;13.82;;;14.60;99.90;;;;;;5066372;28;20507;-90
2023/04/08 12:18:43;;;;;;;15.70;12.95;;;14.80;99.90;;;;;;5077611;28;20034;-88
2023/04/08 12:21:10;;;;;;;15.82;13.55;;;14.90;99.90;;;;;;5073260;28;20036;-89
2023/04/08 12:23:35;;;;;;;16.52;13.82;;;15.10;99.90;;;;;;5078569;28;20089;-90
2023/04/08 12:26:04;;;;;;;17.83;13.57;;;15.70;99.90;;;;;;5075558;28;20040;-90
2023/04/08 12:28:30;;;;;;;17.30;12.98;;;15.40;99.90;;;;;;5077260;28;20042;-89
2023/04/08 12:30:56;;;;;;;14.90;12.35;;;15.70;99.90;;;;;;5069876;28;20491;-90
2023/04/08 12:33:21;;;;;;;14.82;12.35;;;15.90;99.90;;;;;;5079435;28;20037;-89
2023/04/08 12:35:47;;;;;;;20.30;13.45;;;15.80;99.90;;;;;;5074795;28;20050;-90
2023/04/08 12:38:13;;;;;;;15.60;12.68;;;15.70;99.90;;;;;;5062867;28;20040;-90
2023/04/08 12:40:41;;;;;;;18.75;14.23;;;15.50;99.90;;;;;;5077950;28;20040;-91
2023/04/08 12:43:12;;;;;;;14.90;13.18;;;14.50;99.90;;;;;;5086731;28;20570;-89
2023/04/08 12:45:38;;;;;;;14.18;12.15;;;15.20;99.90;;;;;;5074122;28;20067;-90
2023/04/08 12:48:03;;;;;;;13.50;12.05;;;15.20;99.90;;;;;;5078888;28;20067;-89
2023/04/08 12:50:32;;;;;;;14.35;11.77;;;15.30;99.90;;;;;;5072709;28;20126;-90
2023/04/08 12:53:01;;;;;;;13.38;11.98;;;15.40;99.90;;;;;;5066567;28;20173;-87
2023/04/08 12:55:27;;;;;;;14.13;11.45;;;15.30;99.90;;;;;;5060055;28;20048;-86
2023/04/08 12:57:55;;;;;;;12.18;10.32;;;15.60;99.90;;;;;;5078650;28;20036;-86
2023/04/08 13:00:21;;;;;;;12.77;11.32;;;15.80;99.90;;;;;;5092141;28;20052;-88
2023/04/08 13:02:47;;;;;;;13.73;11.85;;;15.60;99.90;;;;;;5097784;28;20043;-90
2023/04/08 13:05:13;;;;;;;14.00;11.48;;;15.70;99.90;;;;;;5098579;28;20047;-89
2023/04/08 13:07:46;;;;;;;12.98;10.63;;;15.80;99.90;;;;;;5075159;28;20071;-89
2023/04/08 13:10:17;;;;;;;12.45;10.65;;;15.70;99.90;;;;;;5079929;28;20044;-89
2023/04/08 13:12:43;;;;;;;12.70;11.07;;;16.00;99.90;;;;;;5074997;28;20035;-89
2023/04/08 13:15:12;;;;;;;12.95;11.30;;;15.50;99.90;;;;;;5058926;28;20104;-88
2023/04/08 13:17:38;;;;;;;12.25;10.43;;;15.50;99.90;;;;;;5071743;28;20071;-89
2023/04/08 13:20:08;;;;;;;11.82;10.18;;;15.60;99.90;;;;;;5093622;28;20082;-88
2023/04/08 13:22:34;;;;;;;13.10;10.60;;;15.60;99.90;;;;;;5079121;28;20043;-88
2023/04/08 13:25:00;;;;;;;10.73;9.40;;;15.70;99.90;;;;;;5065419;28;20173;-88
2023/04/08 13:27:26;;;;;;;11.13;9.18;;;15.70;99.90;;;;;;5071771;28;20047;-89
2023/04/08 13:29:52;;;;;;;12.20;9.95;;;15.80;99.90;;;;;;5059329;28;20039;-89
2023/04/08 13:32:18;;;;;;;10.15;9.05;;;15.80;99.90;;;;;;5057589;28;20040;-89
2023/04/08 13:34:43;;;;;;;10.93;9.75;;;15.80;99.90;;;;;;5089233;28;20036;-90
2023/04/08 13:37:11;;;;;;;11.88;9.70;;;15.70;99.90;;;;;;5082074;28;20082;-90
2023/04/08 13:39:37;;;;;;;12.43;10.30;;;15.60;99.90;;;;;;5074896;28;20036;-87
2023/04/08 13:42:03;;;;;;;13.25;10.70;;;15.60;99.90;;;;;;5076798;28;20046;-90
2023/04/08 13:44:29;;;;;;;13.02;11.00;;;15.30;99.90;;;;;;5075319;28;20372;-89